Governador Eugenio Barros, Brazil
Current Conditions -  °F | °C
As of 11:00 AM on Friday 28 Nov 2014 (Local Time) from SBTE Reporting Station
Scattered Clouds Scattered Clouds  
Wind Chill: 93°   Ceiling: Unl
Heat Index: 97°   Visibility: 6mi
Dew Point: 68°   Wind: 6mph
Humidity: 44%   Direction: 160°SSE
Pressure: 29.85"   Gusts: NA
Location:  5.32°S, 44.25°W
Report Text: SBTE 281400Z 16005KT 9999 SCT030 34/20 Q1011
Loading
Personal Weather Stations






























Interactive Weather Map New forecast layout! Learn more

10-Day Weather Forecast

Advertisements
Track Severe Weather on mobile